Time;durP1;ratioP1;P1;durP2;ratioP2;P2;SDS_P1;SDS_P2;PMS_P1;PMS_P2;Temp;Humidity;BMP_temperature;BMP_pressure;BME280_temperature;BME280_humidity;BME280_pressure;Samples;Min_cycle;Max_cycle;Signal;HPM_P1;HPM_P2
2022/11/28 00:00:58;;;;;;;;;;;7.60;99.90;;;;;;8419551;28;20030;-74
2022/11/28 00:05:00;;;;;;;;;;;7.60;99.90;;;;;;8410352;28;19994;-74
2022/11/28 00:09:01;;;;;;;;;;;7.70;99.90;;;;;;8416717;28;20023;-74
2022/11/28 00:13:03;;;;;;;;;;;7.70;99.90;;;;;;8427096;28;20021;-74
2022/11/28 00:17:04;;;;;;;;;;;7.70;99.90;;;;;;8431155;28;19950;-74
2022/11/28 00:21:08;;;;;;;;;;;7.70;99.90;;;;;;8403331;28;20057;-74
2022/11/28 00:25:10;;;;;;;;;;;7.80;99.90;;;;;;8411284;28;20227;-74
2022/11/28 00:29:11;;;;;;;;;;;7.80;99.90;;;;;;8425097;28;20445;-74
2022/11/28 00:33:13;;;;;;;;;;;7.80;99.90;;;;;;8421242;28;19935;-74
2022/11/28 00:37:14;;;;;;;;;;;7.90;99.90;;;;;;8407685;28;19932;-74
2022/11/28 00:41:18;;;;;;;;;;;7.90;99.90;;;;;;8426738;28;19930;-74
2022/11/28 00:45:19;;;;;;;;;;;7.90;99.90;;;;;;8423790;28;19924;-73
2022/11/28 00:49:21;;;;;;;;;;;7.90;99.90;;;;;;8411140;28;19967;-74
2022/11/28 00:53:22;;;;;;;;;;;7.90;99.90;;;;;;8427092;28;20030;-74
2022/11/28 00:57:24;;;;;;;;;;;7.90;99.90;;;;;;8422773;28;20359;-73
2022/11/28 01:01:27;;;;;;;;;;;8.00;99.90;;;;;;8420821;28;19968;-74
2022/11/28 01:05:29;;;;;;;;;;;8.00;99.90;;;;;;8425006;28;19924;-74
2022/11/28 01:09:30;;;;;;;;;;;8.00;99.90;;;;;;8399391;28;19939;-74
2022/11/28 01:13:32;;;;;;;;;;;8.00;99.90;;;;;;8408592;28;19979;-74
2022/11/28 01:17:34;;;;;;;;;;;8.00;99.90;;;;;;8404448;28;19939;-74
2022/11/28 01:21:36;;;;;;;;;;;8.10;99.90;;;;;;8416049;28;21612;-74
2022/11/28 01:25:37;;;;;;;;;;;8.00;99.90;;;;;;8415736;28;19930;-74
2022/11/28 01:29:39;;;;;;;;;;;8.10;99.90;;;;;;8416926;28;19938;-74
2022/11/28 01:33:41;;;;;;;;;;;8.10;99.90;;;;;;8426615;28;20020;-74
2022/11/28 01:37:43;;;;;;;;;;;8.10;99.90;;;;;;8421117;28;19970;-74
2022/11/28 01:41:44;;;;;;;;;;;8.10;99.90;;;;;;8422519;28;20367;-74
2022/11/28 01:45:46;;;;;;;;;;;8.10;99.90;;;;;;8398359;28;19959;-74
2022/11/28 01:49:48;;;;;;;;;;;8.10;99.90;;;;;;8422867;28;20023;-74
2022/11/28 01:53:50;;;;;;;;;;;8.20;99.90;;;;;;8416361;28;19940;-74
2022/11/28 01:57:53;;;;;;;;;;;8.20;99.90;;;;;;8423355;28;19924;-74
2022/11/28 02:01:55;;;;;;;;;;;8.20;99.90;;;;;;8403019;28;19931;-74
2022/11/28 02:05:56;;;;;;;;;;;8.20;99.90;;;;;;8410667;28;19928;-74
2022/11/28 02:09:59;;;;;;;;;;;8.30;99.90;;;;;;8404845;28;19924;-74
2022/11/28 02:14:07;;;;;;;;;;;8.30;99.90;;;;;;8416965;28;20402;-74
2022/11/28 02:18:29;;;;;;;;;;;8.30;99.90;;;;;;8424907;28;19923;-74
2022/11/28 02:22:57;;;;;;;;;;;8.30;99.90;;;;;;8418516;28;19924;-74
2022/11/28 02:27:07;;;;;;;;;;;8.30;99.90;;;;;;8383416;28;19959;-74
2022/11/28 02:31:09;;;;;;;;;;;8.40;99.90;;;;;;8416588;28;19928;-74
2022/11/28 02:35:16;;;;;;;;;;;8.40;99.90;;;;;;8415515;28;19932;-74
2022/11/28 02:39:27;;;;;;;;;;;8.30;99.90;;;;;;8414250;28;20288;-74
2022/11/28 02:43:35;;;;;;;;;;;8.40;99.90;;;;;;8422545;28;19928;-74
2022/11/28 02:47:39;;;;;;;;;;;8.40;99.90;;;;;;8426742;28;20386;-74
2022/11/28 02:51:44;;;;;;;;;;;8.40;99.90;;;;;;8422867;28;20010;-74
2022/11/28 02:55:47;;;;;;;;;;;8.40;99.90;;;;;;8414952;28;19924;-75
2022/11/28 02:59:50;;;;;;;;;;;8.40;99.90;;;;;;8422583;28;19963;-74
2022/11/28 03:04:01;;;;;;;;;;;8.40;99.90;;;;;;8411295;28;19924;-74
2022/11/28 03:08:22;;;;;;;;;;;8.40;99.90;;;;;;8424268;28;19930;-74
2022/11/28 03:12:32;;;;;;;;;;;8.40;99.90;;;;;;8411023;28;19941;-74
2022/11/28 03:16:42;;;;;;;;;;;8.40;99.90;;;;;;8411068;28;19968;-74
2022/11/28 03:20:43;;;;;;;;;;;8.40;99.90;;;;;;8395146;28;19924;-74
2022/11/28 03:24:45;;;;;;;;;;;8.40;99.90;;;;;;8407333;28;19964;-74
2022/11/28 03:28:50;;;;;;;;;;;8.40;99.90;;;;;;8400056;28;20343;-74
2022/11/28 03:32:53;;;;;;;;;;;8.40;99.90;;;;;;8424281;28;19924;-74
2022/11/28 03:37:07;;;;;;;;;;;8.40;99.90;;;;;;8420586;28;19967;-74
2022/11/28 03:41:17;;;;;;;;;;;8.40;99.90;;;;;;8408007;28;19924;-74
2022/11/28 03:45:24;;;;;;;;;;;8.40;99.90;;;;;;8423164;28;19924;-74
2022/11/28 03:49:46;;;;;;;;;;;8.40;99.90;;;;;;8422858;28;19924;-74
2022/11/28 03:53:50;;;;;;;;;;;8.30;99.90;;;;;;8416945;28;19928;-74
2022/11/28 03:58:18;;;;;;;;;;;8.30;99.90;;;;;;8397899;28;19928;-74
2022/11/28 04:02:33;;;;;;;;;;;8.40;99.90;;;;;;8392099;28;19932;-74
2022/11/28 04:06:53;;;;;;;;;;;8.40;99.90;;;;;;8418235;28;20290;-74
2022/11/28 04:11:10;;;;;;;;;;;8.40;99.90;;;;;;8416041;28;20023;-74
2022/11/28 04:15:18;;;;;;;;;;;8.40;99.90;;;;;;8410330;28;19975;-74
2022/11/28 04:19:28;;;;;;;;;;;8.40;99.90;;;;;;8418547;28;19924;-74
2022/11/28 04:23:30;;;;;;;;;;;8.40;99.90;;;;;;8404498;28;19951;-74
2022/11/28 04:27:52;;;;;;;;;;;8.40;99.90;;;;;;8395032;28;19934;-74
2022/11/28 04:31:56;;;;;;;;;;;8.40;99.90;;;;;;8402466;28;19964;-74
2022/11/28 04:35:59;;;;;;;;;;;8.40;99.90;;;;;;8431707;28;19931;-74
2022/11/28 04:40:01;;;;;;;;;;;8.40;99.90;;;;;;8420801;28;20421;-74
2022/11/28 04:44:08;;;;;;;;;;;8.40;99.90;;;;;;8420041;28;19967;-73
2022/11/28 04:48:10;;;;;;;;;;;8.40;99.90;;;;;;8417942;28;19966;-73
2022/11/28 04:52:14;;;;;;;;;;;8.40;99.90;;;;;;8412880;28;20005;-73
2022/11/28 04:56:21;;;;;;;;;;;8.40;99.90;;;;;;8417511;28;19924;-73
2022/11/28 05:00:23;;;;;;;;;;;8.40;99.90;;;;;;8421715;28;19928;-73
2022/11/28 05:04:24;;;;;;;;;;;8.40;99.90;;;;;;8390289;28;19951;-74
2022/11/28 05:08:26;;;;;;;;;;;8.40;99.90;;;;;;8378412;28;19990;-74
2022/11/28 05:12:27;;;;;;;;;;;8.40;99.90;;;;;;8390577;28;19936;-73
2022/11/28 05:16:29;;;;;;;;;;;8.40;99.90;;;;;;8390174;28;19951;-73
2022/11/28 05:20:31;;;;;;;;;;;8.50;99.90;;;;;;8381144;28;19924;-74
2022/11/28 05:24:32;;;;;;;;;;;8.40;99.90;;;;;;8390235;28;19935;-74
2022/11/28 05:28:34;;;;;;;;;;;8.40;99.90;;;;;;8380652;28;19929;-73
2022/11/28 05:32:36;;;;;;;;;;;8.40;99.90;;;;;;8383393;28;19972;-74
2022/11/28 05:36:37;;;;;;;;;;;8.50;99.90;;;;;;8389554;28;19932;-73
2022/11/28 05:40:43;;;;;;;;;;;8.50;99.90;;;;;;8381677;28;19937;-74
2022/11/28 05:44:44;;;;;;;;;;;8.40;99.90;;;;;;8380831;28;20023;-74
2022/11/28 05:48:46;;;;;;;;;;;8.40;99.90;;;;;;8385182;28;20007;-73
2022/11/28 05:52:48;;;;;;;;;;;8.40;99.90;;;;;;8385788;28;19975;-74
2022/11/28 05:56:50;;;;;;;;;;;8.50;99.90;;;;;;8387633;28;20027;-74
2022/11/28 06:00:51;;;;;;;;;;;8.40;99.90;;;;;;8379892;28;19932;-73
2022/11/28 06:04:53;;;;;;;;;;;8.50;99.90;;;;;;8383452;28;20414;-74
2022/11/28 06:08:55;;;;;;;;;;;8.40;99.90;;;;;;8411311;28;19924;-73
2022/11/28 06:12:56;;;;;;;;;;;8.40;99.90;;;;;;8410189;28;19928;-74
2022/11/28 06:16:58;;;;;;;;;;;8.40;99.90;;;;;;8413593;28;19930;-74
2022/11/28 06:21:01;;;;;;;;;;;8.50;99.90;;;;;;8426710;28;19938;-74
2022/11/28 06:25:03;;;;;;;;;;;8.50;99.90;;;;;;8420121;28;19935;-73
2022/11/28 06:29:05;;;;;;;;;;;8.50;99.90;;;;;;8412936;28;19964;-74
2022/11/28 06:33:06;;;;;;;;;;;8.50;99.90;;;;;;8424124;28;20034;-74
2022/11/28 06:37:08;;;;;;;;;;;8.50;99.90;;;;;;8413151;28;19964;-74
2022/11/28 06:41:11;;;;;;;;;;;8.50;99.90;;;;;;8419805;28;20304;-73
2022/11/28 06:45:12;;;;;;;;;;;8.50;99.90;;;;;;8417110;28;19938;-73
2022/11/28 06:49:14;;;;;;;;;;;8.50;99.90;;;;;;8425757;28;19934;-74
2022/11/28 06:53:16;;;;;;;;;;;8.50;99.90;;;;;;8421256;28;19974;-74
2022/11/28 06:57:17;;;;;;;;;;;8.50;99.90;;;;;;8417361;28;19928;-73
2022/11/28 07:01:20;;;;;;;;;;;8.50;99.90;;;;;;8417850;28;19940;-73
2022/11/28 07:05:26;;;;;;;;;;;8.50;99.90;;;;;;8411335;28;19924;-74
2022/11/28 07:09:28;;;;;;;;;;;8.50;99.90;;;;;;8411972;28;20328;-73
2022/11/28 07:13:29;;;;;;;;;;;8.60;99.90;;;;;;8411016;28;20097;-73
2022/11/28 07:17:31;;;;;;;;;;;8.60;99.90;;;;;;8418448;28;19930;-73
2022/11/28 07:21:32;;;;;;;;;;;8.60;99.90;;;;;;8420485;28;20334;-74
2022/11/28 07:25:34;;;;;;;;;;;8.60;99.90;;;;;;8425870;28;19932;-73
2022/11/28 07:29:36;;;;;;;;;;;8.60;99.90;;;;;;8424352;28;19924;-74
2022/11/28 07:33:41;;;;;;;;;;;8.60;99.90;;;;;;8413724;28;19930;-74
2022/11/28 07:37:43;;;;;;;;;;;8.60;99.90;;;;;;8416230;28;19929;-74
2022/11/28 07:41:44;;;;;;;;;;;8.60;99.90;;;;;;8414272;28;20290;-75
2022/11/28 07:45:46;;;;;;;;;;;8.60;99.90;;;;;;8417383;28;20375;-74
2022/11/28 07:50:01;;;;;;;;;;;8.70;99.90;;;;;;8420421;28;19928;-74
2022/11/28 07:54:03;;;;;;;;;;;8.70;99.90;;;;;;8390271;28;20031;-74
2022/11/28 07:58:05;;;;;;;;;;;8.70;99.90;;;;;;8399339;28;19924;-73
2022/11/28 08:02:07;;;;;;;;;;;8.70;99.90;;;;;;8396461;28;19928;-74
2022/11/28 08:06:09;;;;;;;;;;;8.70;99.90;;;;;;8403948;28;19928;-74
2022/11/28 08:10:11;;;;;;;;;;;8.70;99.90;;;;;;8420611;28;19924;-74
2022/11/28 08:14:13;;;;;;;;;;;8.70;99.90;;;;;;8421077;28;19983;-74
2022/11/28 08:18:14;;;;;;;;;;;8.70;99.90;;;;;;8431948;28;19967;-74
2022/11/28 08:22:16;;;;;;;;;;;8.80;99.90;;;;;;8424951;28;19930;-74
2022/11/28 08:26:19;;;;;;;;;;;8.80;99.90;;;;;;8424593;28;19930;-74
2022/11/28 08:30:21;;;;;;;;;;;8.80;99.90;;;;;;8424412;28;19924;-74
2022/11/28 08:34:23;;;;;;;;;;;8.80;99.90;;;;;;8427233;28;19935;-73
2022/11/28 08:38:24;;;;;;;;;;;8.80;99.90;;;;;;8405221;28;19968;-74
2022/11/28 08:42:26;;;;;;;;;;;8.80;99.90;;;;;;8415603;28;19978;-74
2022/11/28 08:46:28;;;;;;;;;;;8.90;99.90;;;;;;8396772;28;20265;-74
2022/11/28 08:50:30;;;;;;;;;;;8.90;99.90;;;;;;8419555;28;19931;-73
2022/11/28 08:54:31;;;;;;;;;;;8.90;99.90;;;;;;8418019;28;20391;-73
2022/11/28 08:58:33;;;;;;;;;;;8.90;99.90;;;;;;8424628;28;19935;-73
2022/11/28 09:02:35;;;;;;;;;;;8.90;99.90;;;;;;8426721;28;19924;-74
2022/11/28 09:06:39;;;;;;;;;;;9.00;99.90;;;;;;8427469;28;20033;-73
2022/11/28 09:10:42;;;;;;;;;;;9.00;99.90;;;;;;8406303;28;19966;-74
2022/11/28 09:14:44;;;;;;;;;;;9.00;99.90;;;;;;8416049;28;20400;-73
2022/11/28 09:18:45;;;;;;;;;;;9.00;99.90;;;;;;8425941;28;20387;-73
2022/11/28 09:22:47;;;;;;;;;;;9.10;99.90;;;;;;8421817;28;19928;-74
2022/11/28 09:26:49;;;;;;;;;;;9.10;99.90;;;;;;8408248;28;19924;-73
2022/11/28 09:30:58;;;;;;;;;;;9.10;99.90;;;;;;8416948;28;19924;-74
2022/11/28 09:34:59;;;;;;;;;;;9.20;99.90;;;;;;8424486;28;20455;-74
2022/11/28 09:39:01;;;;;;;;;;;9.20;99.90;;;;;;8416672;28;19924;-74
2022/11/28 09:43:05;;;;;;;;;;;9.20;99.90;;;;;;8428132;28;19960;-74
2022/11/28 09:47:13;;;;;;;;;;;9.30;99.90;;;;;;8413776;28;19982;-74
2022/11/28 09:51:14;;;;;;;;;;;9.30;99.90;;;;;;8391926;28;19925;-74
2022/11/28 09:55:25;;;;;;;;;;;9.30;99.90;;;;;;8409981;28;20268;-74
2022/11/28 09:59:28;;;;;;;;;;;9.30;99.90;;;;;;8415879;28;19978;-74
2022/11/28 10:03:45;;;;;;;;;;;9.30;99.90;;;;;;8416510;28;19930;-74
2022/11/28 10:08:02;;;;;;;;;;;9.40;99.90;;;;;;8419878;28;19928;-74
2022/11/28 10:12:23;;;;;;;;;;;9.30;99.90;;;;;;8410798;28;19932;-73
2022/11/28 10:16:36;;;;;;;;;;;9.40;99.90;;;;;;8411373;28;19924;-73
2022/11/28 10:20:41;;;;;;;;;;;9.40;99.90;;;;;;8422530;28;20338;-73
2022/11/28 10:24:45;;;;;;;;;;;9.40;99.90;;;;;;8410936;28;19972;-73
2022/11/28 10:28:48;;;;;;;;;;;9.50;99.90;;;;;;8414497;28;19929;-73
2022/11/28 10:32:53;;;;;;;;;;;9.50;99.90;;;;;;8422851;28;19924;-73
2022/11/28 10:37:15;;;;;;;;;;;9.50;99.90;;;;;;8414877;28;19924;-73
2022/11/28 10:41:22;;;;;;;;;;;9.50;99.90;;;;;;8409274;28;19924;-73
2022/11/28 10:45:53;;;;;;;;;;;9.60;99.90;;;;;;8400607;28;19928;-73
2022/11/28 10:50:01;;;;;;;;;;;9.60;99.90;;;;;;8347666;28;19924;-73
2022/11/28 10:54:15;;;;;;;;;;;9.70;99.90;;;;;;8415401;28;19924;-73
2022/11/28 10:58:20;;;;;;;;;;;9.70;99.90;;;;;;8394412;28;19961;-73
2022/11/28 11:02:54;;;;;;;;;;;9.80;99.90;;;;;;8383291;28;19924;-73
2022/11/28 11:07:00;;;;;;;;;;;9.80;99.90;;;;;;8371177;28;20007;-74
2022/11/28 11:11:26;;;;;;;;;;;9.90;99.90;;;;;;8396498;28;20364;-73
2022/11/28 11:15:32;;;;;;;;;;;9.90;99.90;;;;;;8390466;28;19928;-73
2022/11/28 11:19:37;;;;;;;;;;;9.90;99.90;;;;;;8398429;28;20392;-74
2022/11/28 11:23:39;;;;;;;;;;;10.00;99.90;;;;;;8373908;28;19950;-74
2022/11/28 11:27:54;;;;;;;;;;;10.00;99.90;;;;;;8400098;28;20271;-73
2022/11/28 11:32:02;;;;;;;;;;;10.00;99.90;;;;;;8395609;28;19925;-74
2022/11/28 11:36:04;;;;;;;;;;;10.00;99.90;;;;;;8381113;28;20391;-73
2022/11/28 11:40:19;;;;;;;;;;;10.00;99.90;;;;;;8402475;28;19935;-74
2022/11/28 11:44:25;;;;;;;;;;;10.00;99.90;;;;;;8394631;28;20010;-73
2022/11/28 11:48:37;;;;;;;;;;;10.00;99.90;;;;;;8404643;28;19971;-73
2022/11/28 11:52:39;;;;;;;;;;;10.00;99.90;;;;;;8407908;28;19963;-73
2022/11/28 11:56:42;;;;;;;;;;;10.10;99.90;;;;;;8407265;28;20011;-73
2022/11/28 12:00:44;;;;;;;;;;;10.10;99.90;;;;;;8412345;28;19932;-73
2022/11/28 12:04:49;;;;;;;;;;;10.10;99.90;;;;;;8411101;28;20322;-73
2022/11/28 12:08:58;;;;;;;;;;;10.20;99.90;;;;;;8406756;28;19932;-73
2022/11/28 12:13:00;;;;;;;;;;;10.20;99.90;;;;;;8413139;28;20019;-73
2022/11/28 12:17:21;;;;;;;;;;;10.20;99.90;;;;;;8411892;28;19956;-73
2022/11/28 12:21:58;;;;;;;;;;;10.30;99.90;;;;;;8402189;28;19932;-74
2022/11/28 12:26:17;;;;;;;;;;;10.30;99.90;;;;;;8387882;28;19958;-73
2022/11/28 12:30:37;;;;;;;;;;;10.30;99.90;;;;;;8409471;28;19924;-73
2022/11/28 12:34:56;;;;;;;;;;;10.30;99.90;;;;;;8384611;28;19924;-74
2022/11/28 12:39:16;;;;;;;;;;;10.30;99.90;;;;;;8405903;28;19925;-73
2022/11/28 12:43:29;;;;;;;;;;;10.30;99.90;;;;;;8394817;28;20391;-73
2022/11/28 12:47:30;;;;;;;;;;;10.30;99.90;;;;;;8410869;28;19936;-74
2022/11/28 12:51:51;;;;;;;;;;;10.40;99.90;;;;;;8403968;28;19967;-74
2022/11/28 12:55:57;;;;;;;;;;;10.40;99.90;;;;;;8402296;28;20407;-73
2022/11/28 13:00:03;;;;;;;;;;;10.40;99.90;;;;;;8401351;28;20135;-73
2022/11/28 13:04:27;;;;;;;;;;;10.40;99.90;;;;;;8383273;28;19970;-73
2022/11/28 13:08:40;;;;;;;;;;;10.40;99.90;;;;;;8397210;28;20360;-74
2022/11/28 13:13:01;;;;;;;;;;;10.40;99.90;;;;;;8397334;28;19971;-74
2022/11/28 13:17:21;;;;;;;;;;;10.40;99.90;;;;;;8399432;28;20035;-73
2022/11/28 13:21:26;;;;;;;;;;;10.40;99.90;;;;;;8395391;28;20292;-74
2022/11/28 13:25:38;;;;;;;;;;;10.40;99.90;;;;;;8397349;28;19972;-74
2022/11/28 13:29:55;;;;;;;;;;;10.40;99.90;;;;;;8397065;28;19931;-73
2022/11/28 13:33:57;;;;;;;;;;;10.40;99.90;;;;;;8394875;28;19961;-73
2022/11/28 13:38:08;;;;;;;;;;;10.40;99.90;;;;;;8404532;28;19959;-73
2022/11/28 13:42:48;;;;;;;;;;;10.50;99.90;;;;;;8399242;28;19953;-73
2022/11/28 13:47:20;;;;;;;;;;;10.50;99.90;;;;;;8396706;28;20664;-74
2022/11/28 13:51:27;;;;;;;;;;;10.50;99.90;;;;;;8396434;28;19971;-74
2022/11/28 13:55:35;;;;;;;;;;;10.50;99.90;;;;;;8400994;28;19956;-73
2022/11/28 13:59:37;;;;;;;;;;;10.60;99.90;;;;;;8391272;28;19934;-74
2022/11/28 14:03:46;;;;;;;;;;;10.50;99.90;;;;;;8398969;28;19960;-74
2022/11/28 14:07:51;;;;;;;;;;;10.60;99.90;;;;;;8405536;28;19932;-74
2022/11/28 14:11:56;;;;;;;;;;;10.50;99.90;;;;;;8395267;28;20020;-74
2022/11/28 14:16:05;;;;;;;;;;;10.60;99.90;;;;;;8395689;28;19925;-74
2022/11/28 14:20:11;;;;;;;;;;;10.60;99.90;;;;;;8407704;28;19936;-74
2022/11/28 14:24:22;;;;;;;;;;;10.60;99.90;;;;;;8405655;28;19972;-74
2022/11/28 14:28:26;;;;;;;;;;;10.60;99.90;;;;;;8395813;28;19978;-74
2022/11/28 14:32:33;;;;;;;;;;;10.60;99.90;;;;;;8400547;28;19966;-73
2022/11/28 14:36:40;;;;;;;;;;;10.60;99.90;;;;;;8396416;28;20821;-74
2022/11/28 14:40:51;;;;;;;;;;;10.60;99.90;;;;;;8400719;28;19932;-74
2022/11/28 14:44:57;;;;;;;;;;;10.60;99.90;;;;;;8397175;28;20279;-74
2022/11/28 14:49:08;;;;;;;;;;;10.70;99.90;;;;;;8376830;28;19928;-74
2022/11/28 14:53:30;;;;;;;;;;;10.60;99.90;;;;;;8376238;28;19974;-74
2022/11/28 14:57:34;;;;;;;;;;;10.60;99.90;;;;;;8374541;28;19959;-74
2022/11/28 15:01:42;;;;;;;;;;;10.60;99.90;;;;;;8388855;28;20006;-74
2022/11/28 15:05:47;;;;;;;;;;;10.70;99.90;;;;;;8397578;28;19931;-74
2022/11/28 15:09:56;;;;;;;;;;;10.70;99.90;;;;;;8397578;28;19967;-74
2022/11/28 15:14:09;;;;;;;;;;;10.70;99.90;;;;;;8391970;28;19930;-74
2022/11/28 15:18:11;;;;;;;;;;;10.70;99.90;;;;;;8390848;28;20326;-74
2022/11/28 15:22:31;;;;;;;;;;;10.70;99.90;;;;;;8388406;28;19928;-74
2022/11/28 15:26:32;;;;;;;;;;;10.70;99.90;;;;;;8398470;28;19934;-74
2022/11/28 15:30:42;;;;;;;;;;;10.60;99.90;;;;;;8393421;28;19977;-74
2022/11/28 15:34:49;;;;;;;;;;;10.60;99.90;;;;;;8377114;28;19931;-74
2022/11/28 15:38:52;;;;;;;;;;;10.60;99.90;;;;;;8403212;28;19932;-74
2022/11/28 15:42:53;;;;;;;;;;;10.60;99.90;;;;;;8392832;28;19975;-74
2022/11/28 15:46:55;;;;;;;;;;;10.60;99.90;;;;;;8395102;28;19939;-74
2022/11/28 15:50:57;;;;;;;;;;;10.60;99.90;;;;;;8396624;28;19925;-74
2022/11/28 15:54:58;;;;;;;;;;;10.50;99.90;;;;;;8401630;28;19924;-74
2022/11/28 15:59:00;;;;;;;;;;;10.50;99.90;;;;;;8402049;28;19924;-74
2022/11/28 16:03:03;;;;;;;;;;;10.50;99.90;;;;;;8399274;28;19994;-74
2022/11/28 16:07:05;;;;;;;;;;;10.40;99.90;;;;;;8391746;28;19972;-74
2022/11/28 16:11:09;;;;;;;;;;;10.40;99.90;;;;;;8398305;28;19927;-74
2022/11/28 16:15:18;;;;;;;;;;;10.40;99.90;;;;;;8399371;28;19925;-74
2022/11/28 16:19:24;;;;;;;;;;;10.40;99.90;;;;;;8387521;28;19935;-74
2022/11/28 16:23:27;;;;;;;;;;;10.40;99.90;;;;;;8393255;28;19928;-74
2022/11/28 16:27:36;;;;;;;;;;;10.40;99.90;;;;;;8402801;28;19924;-74
2022/11/28 16:31:38;;;;;;;;;;;10.40;99.90;;;;;;8378346;28;19932;-74
2022/11/28 16:35:40;;;;;;;;;;;10.40;99.90;;;;;;8396119;28;19928;-74
2022/11/28 16:39:42;;;;;;;;;;;10.40;99.90;;;;;;8407233;28;19924;-74
2022/11/28 16:43:46;;;;;;;;;;;10.40;99.90;;;;;;8393781;28;19931;-74
2022/11/28 16:47:52;;;;;;;;;;;10.40;99.90;;;;;;8399782;28;20335;-74
2022/11/28 16:52:12;;;;;;;;;;;10.40;99.90;;;;;;8393161;28;19932;-74
2022/11/28 16:56:43;;;;;;;;;;;10.40;99.90;;;;;;8398863;28;20015;-74
2022/11/28 17:00:50;;;;;;;;;;;10.40;99.90;;;;;;8367287;28;20354;-74
2022/11/28 17:04:52;;;;;;;;;;;10.30;99.90;;;;;;8394797;28;19962;-74
2022/11/28 17:08:54;;;;;;;;;;;10.30;99.90;;;;;;8415998;28;19976;-74
2022/11/28 17:12:56;;;;;;;;;;;10.30;99.90;;;;;;8393845;28;19932;-74
2022/11/28 17:16:58;;;;;;;;;;;10.30;99.90;;;;;;8383797;28;20343;-74
2022/11/28 17:21:02;;;;;;;;;;;10.30;99.90;;;;;;8400919;28;20037;-74
2022/11/28 17:25:05;;;;;;;;;;;10.20;99.90;;;;;;8406265;28;20343;-74
2022/11/28 17:29:09;;;;;;;;;;;10.20;99.90;;;;;;8401218;28;19925;-74
2022/11/28 17:33:14;;;;;;;;;;;10.20;99.90;;;;;;8386516;28;19982;-74
2022/11/28 17:37:15;;;;;;;;;;;10.20;99.90;;;;;;8380554;28;19925;-74
2022/11/28 17:41:17;;;;;;;;;;;10.20;99.90;;;;;;8397919;28;19967;-74
2022/11/28 17:45:20;;;;;;;;;;;10.20;99.90;;;;;;8398076;28;19928;-74
2022/11/28 17:49:22;;;;;;;;;;;10.20;99.90;;;;;;8394839;28;19963;-74
2022/11/28 17:53:23;;;;;;;;;;;10.20;99.90;;;;;;8394201;28;20243;-74
2022/11/28 17:57:25;;;;;;;;;;;10.20;99.90;;;;;;8397400;28;19929;-74
2022/11/28 18:01:28;;;;;;;;;;;10.20;99.90;;;;;;8394953;28;19965;-74
2022/11/28 18:05:29;;;;;;;;;;;10.20;99.90;;;;;;8389627;28;19928;-74
2022/11/28 18:09:31;;;;;;;;;;;10.20;99.90;;;;;;8382289;28;19964;-74
2022/11/28 18:13:33;;;;;;;;;;;10.20;99.90;;;;;;8387640;28;19928;-74
2022/11/28 18:17:34;;;;;;;;;;;10.20;99.90;;;;;;8392422;28;19932;-74
2022/11/28 18:21:36;;;;;;;;;;;10.20;99.90;;;;;;8399904;28;20429;-74
2022/11/28 18:25:42;;;;;;;;;;;10.30;99.90;;;;;;8391253;28;19932;-74
2022/11/28 18:29:43;;;;;;;;;;;10.20;99.90;;;;;;8396986;28;20023;-74
2022/11/28 18:33:46;;;;;;;;;;;10.20;99.90;;;;;;8394746;28;19971;-74
2022/11/28 18:37:47;;;;;;;;;;;10.20;99.90;;;;;;8395637;28;20031;-74
2022/11/28 18:41:49;;;;;;;;;;;10.20;99.90;;;;;;8396096;28;19928;-74
2022/11/28 18:45:50;;;;;;;;;;;10.20;99.90;;;;;;8381153;28;19924;-74
2022/11/28 18:49:52;;;;;;;;;;;10.20;99.90;;;;;;8393485;28;20051;-74
2022/11/28 18:53:54;;;;;;;;;;;10.20;99.90;;;;;;8397430;28;24278;-74
2022/11/28 18:57:56;;;;;;;;;;;10.20;99.90;;;;;;8394235;28;19943;-74
2022/11/28 19:01:57;;;;;;;;;;;10.20;99.90;;;;;;8392709;28;20372;-73
2022/11/28 19:06:01;;;;;;;;;;;10.20;99.90;;;;;;8393560;28;19928;-74
2022/11/28 19:10:03;;;;;;;;;;;10.20;99.90;;;;;;8381318;28;19964;-74
2022/11/28 19:14:06;;;;;;;;;;;10.20;99.90;;;;;;8384164;28;20044;-74
2022/11/28 19:18:08;;;;;;;;;;;10.20;99.90;;;;;;8381409;28;19935;-73
2022/11/28 19:22:10;;;;;;;;;;;10.20;99.90;;;;;;8393135;28;19931;-73
2022/11/28 19:26:13;;;;;;;;;;;10.10;99.90;;;;;;8388499;28;20324;-74
2022/11/28 19:30:15;;;;;;;;;;;10.10;99.90;;;;;;8382714;28;19966;-74
2022/11/28 19:34:17;;;;;;;;;;;10.10;99.90;;;;;;8395896;28;20051;-74
2022/11/28 19:38:18;;;;;;;;;;;10.00;99.90;;;;;;8399590;28;20059;-74
2022/11/28 19:42:20;;;;;;;;;;;10.00;99.90;;;;;;8378563;28;20032;-74
2022/11/28 19:46:22;;;;;;;;;;;10.00;99.90;;;;;;8384041;28;19971;-74
2022/11/28 19:50:23;;;;;;;;;;;9.90;99.90;;;;;;8378633;28;19932;-74
2022/11/28 19:54:25;;;;;;;;;;;9.90;99.90;;;;;;8378226;28;19934;-74
2022/11/28 19:58:28;;;;;;;;;;;9.80;99.90;;;;;;8392718;28;19935;-74
2022/11/28 20:02:29;;;;;;;;;;;9.80;99.90;;;;;;8368513;28;20010;-74
2022/11/28 20:06:31;;;;;;;;;;;9.80;99.90;;;;;;8395899;28;20449;-74
2022/11/28 20:10:34;;;;;;;;;;;9.70;99.90;;;;;;8371257;28;19971;-74
2022/11/28 20:14:35;;;;;;;;;;;9.70;99.90;;;;;;8390860;28;20642;-74
2022/11/28 20:18:38;;;;;;;;;;;9.70;99.90;;;;;;8399452;28;20651;-74
2022/11/28 20:22:39;;;;;;;;;;;9.70;99.90;;;;;;8394699;28;19924;-74
2022/11/28 20:26:41;;;;;;;;;;;9.70;99.90;;;;;;8398074;28;20042;-74
2022/11/28 20:30:43;;;;;;;;;;;9.70;99.90;;;;;;8401090;28;19929;-74
2022/11/28 20:34:45;;;;;;;;;;;9.70;99.90;;;;;;8400268;28;19924;-74
2022/11/28 20:38:47;;;;;;;;;;;9.70;99.90;;;;;;8394613;28;20019;-74
2022/11/28 20:42:48;;;;;;;;;;;9.70;99.90;;;;;;8382039;28;19930;-74
2022/11/28 20:46:50;;;;;;;;;;;9.70;99.90;;;;;;8396029;28;20366;-74
2022/11/28 20:50:52;;;;;;;;;;;9.80;99.90;;;;;;8398682;28;20023;-74
2022/11/28 20:54:53;;;;;;;;;;;9.80;99.90;;;;;;8400859;28;20364;-74
2022/11/28 20:58:56;;;;;;;;;;;9.80;99.90;;;;;;8402873;28;19959;-74
2022/11/28 21:02:58;;;;;;;;;;;9.80;99.90;;;;;;8400916;28;19979;-74
2022/11/28 21:07:00;;;;;;;;;;;9.80;99.90;;;;;;8396636;28;20051;-74
2022/11/28 21:11:09;;;;;;;;;;;9.80;99.90;;;;;;8391326;28;19936;-74
2022/11/28 21:15:11;;;;;;;;;;;9.80;99.90;;;;;;8397419;28;19927;-74
2022/11/28 21:19:12;;;;;;;;;;;9.80;99.90;;;;;;8397132;28;19970;-74
2022/11/28 21:23:15;;;;;;;;;;;9.80;99.90;;;;;;8396769;28;19924;-74
2022/11/28 21:27:16;;;;;;;;;;;9.80;99.90;;;;;;8394100;28;19938;-74
2022/11/28 21:31:23;;;;;;;;;;;9.80;99.90;;;;;;8389615;28;19960;-74
2022/11/28 21:35:24;;;;;;;;;;;9.80;99.90;;;;;;8400712;28;19981;-74
2022/11/28 21:39:26;;;;;;;;;;;9.80;99.90;;;;;;8382018;28;19924;-74
2022/11/28 21:43:28;;;;;;;;;;;9.70;99.90;;;;;;8394158;28;19928;-74
2022/11/28 21:47:30;;;;;;;;;;;9.80;99.90;;;;;;8392739;28;19924;-74
2022/11/28 21:51:32;;;;;;;;;;;9.70;99.90;;;;;;8392576;28;19924;-74
2022/11/28 21:55:35;;;;;;;;;;;9.70;99.90;;;;;;8397072;28;19935;-74
2022/11/28 21:59:37;;;;;;;;;;;9.70;99.90;;;;;;8390519;28;20031;-74
2022/11/28 22:03:39;;;;;;;;;;;9.80;99.90;;;;;;8389721;28;19928;-74
2022/11/28 22:07:41;;;;;;;;;;;9.70;99.90;;;;;;8402780;28;20290;-74
2022/11/28 22:11:43;;;;;;;;;;;9.70;99.90;;;;;;8417434;28;19928;-74
2022/11/28 22:15:44;;;;;;;;;;;9.80;99.90;;;;;;8414154;28;20308;-74
2022/11/28 22:19:46;;;;;;;;;;;9.80;99.90;;;;;;8409091;28;20226;-74
2022/11/28 22:23:48;;;;;;;;;;;9.70;99.90;;;;;;8420233;28;19956;-74
2022/11/28 22:27:49;;;;;;;;;;;9.70;99.90;;;;;;8424729;28;20271;-74
2022/11/28 22:31:51;;;;;;;;;;;9.70;99.90;;;;;;8414306;28;20379;-74
2022/11/28 22:35:53;;;;;;;;;;;9.70;99.90;;;;;;8425247;28;19924;-74
2022/11/28 22:39:54;;;;;;;;;;;9.70;99.90;;;;;;8420872;28;19924;-74
2022/11/28 22:43:58;;;;;;;;;;;9.70;99.90;;;;;;8399133;28;19962;-74
2022/11/28 22:48:00;;;;;;;;;;;9.70;99.90;;;;;;8392928;28;19932;-74
2022/11/28 22:52:01;;;;;;;;;;;9.70;99.90;;;;;;8415494;28;19924;-74
2022/11/28 22:56:05;;;;;;;;;;;9.60;99.90;;;;;;8388394;28;20290;-74
2022/11/28 23:00:07;;;;;;;;;;;9.60;99.90;;;;;;8414948;28;20345;-74
2022/11/28 23:04:09;;;;;;;;;;;9.60;99.90;;;;;;8409455;28;19932;-74
2022/11/28 23:08:12;;;;;;;;;;;9.50;99.90;;;;;;8382284;28;19958;-74
2022/11/28 23:17:17;;;;;;;;;;;9.50;99.90;;;;;;8414139;28;19935;-74
2022/11/28 23:21:19;;;;;;;;;;;9.50;99.90;;;;;;8411491;28;20304;-74
2022/11/28 23:25:21;;;;;;;;;;;9.50;99.90;;;;;;8397557;28;20047;-74
2022/11/28 23:29:23;;;;;;;;;;;9.50;99.90;;;;;;8389431;28;19959;-74
2022/11/28 23:33:24;;;;;;;;;;;9.50;99.90;;;;;;8396461;28;19950;-74
2022/11/28 23:37:26;;;;;;;;;;;9.50;99.90;;;;;;8415872;28;20340;-74
2022/11/28 23:41:28;;;;;;;;;;;9.50;99.90;;;;;;8411690;28;20570;-74
2022/11/28 23:45:29;;;;;;;;;;;9.50;99.90;;;;;;8413539;28;19932;-74
2022/11/28 23:49:31;;;;;;;;;;;9.50;99.90;;;;;;8415778;28;19924;-74
2022/11/28 23:53:33;;;;;;;;;;;9.50;99.90;;;;;;8419030;28;19924;-74
2022/11/28 23:57:35;;;;;;;;;;;9.50;99.90;;;;;;8408428;28;20020;-73
